Rosemount, Minnesota
Current Conditions -  °F | °C
As of 8:30 PM on Friday 28 Nov 2014 (Local Time) from KSGS Reporting Station
Clear Clear  
Wind Chill: 24°   Ceiling: Unl
Heat Index: 24°   Visibility: 10mi
Dew Point: 19°   Wind: 0mph
Humidity: 78%   Direction: NA
Pressure: 29.8"   Gusts: NA
Location:  44.74°N, 93.12°W
Report Text: KSGS 290230Z AUTO 00000KT 10SM CLR M04/M07 A2980 RMK AO2 T10421075
Loading
Personal Weather Stations






























Interactive Weather Map New forecast layout! Learn more

10-Day Weather Forecast

Advertisements
Track Severe Weather on mobile